Huvudsida
METAR-TAF:

METAR-TAF

Flygplatser :

Hutchinson County Airport

Borger, Texas, USA

latitud: 35-41-42N, longitud: 101-23-42W, höjd: 931 m

Aktuellt väderrapport

Denna rapport gjordes för 35 minuter sedan, klockan 23:16 UTC
Vind 19 kt från sydost i byarna ända upp till 32 kt
Temperatur 21°C
Fuktighet 83%
Tryck 1010 hPa
Sikt: 16.1 km
Brutna moln på en höjd av 1100 ft

METAR: KBGD 262316Z AUTO 13019G32KT 10SM BKN011 21/18 A2983 RMK AO2 PK WND 14032/2252 LTG DSNT NE T02110183

Tid: 18:51 (23:51 UTC)


TAF: saknas

Aktuella väderrapporter och prognoser från 4000 flygplatser (METAR- och TAF-rapporter).

De tillgängliga stationerna syns som gula och röda prickar på kartan.

För musen över prickarna för att se namnen på stationerna.

Klicka sedan för att få väderrapporter och prognoser.

För att ändra kartan: Klicka på de gröna knapparna med ett svart kors på för att zooma in; den gröna knappen med ett streck på för att zooma ut; eller på de gröna pilarna för angränsande kartor.


METAR-TAF: